sensor_id;sensor_type;location;lat;lon;timestamp;temperature;humidity
5675;DHT22;2860;54.284;10.158;2023-04-25T00:02:21;6.60;99.90
5675;DHT22;2860;54.284;10.158;2023-04-25T00:04:47;6.70;99.90
5675;DHT22;2860;54.284;10.158;2023-04-25T00:07:14;6.60;99.90
5675;DHT22;2860;54.284;10.158;2023-04-25T00:09:41;6.60;99.90
5675;DHT22;2860;54.284;10.158;2023-04-25T00:12:06;6.60;99.90
5675;DHT22;2860;54.284;10.158;2023-04-25T00:14:32;6.60;99.90
5675;DHT22;2860;54.284;10.158;2023-04-25T00:17:01;6.50;99.90
5675;DHT22;2860;54.284;10.158;2023-04-25T00:19:26;6.50;99.90
5675;DHT22;2860;54.284;10.158;2023-04-25T00:21:54;6.50;99.90
5675;DHT22;2860;54.284;10.158;2023-04-25T00:24:20;6.50;99.90
5675;DHT22;2860;54.284;10.158;2023-04-25T00:26:45;6.40;99.90
5675;DHT22;2860;54.284;10.158;2023-04-25T00:29:11;6.40;99.90
5675;DHT22;2860;54.284;10.158;2023-04-25T00:31:36;6.40;99.90
5675;DHT22;2860;54.284;10.158;2023-04-25T00:34:02;6.40;99.90
5675;DHT22;2860;54.284;10.158;2023-04-25T00:36:27;6.40;99.90
5675;DHT22;2860;54.284;10.158;2023-04-25T00:38:53;6.40;99.90
5675;DHT22;2860;54.284;10.158;2023-04-25T00:41:20;6.40;99.90
5675;DHT22;2860;54.284;10.158;2023-04-25T00:43:46;6.40;99.90
5675;DHT22;2860;54.284;10.158;2023-04-25T00:46:12;6.40;99.90
5675;DHT22;2860;54.284;10.158;2023-04-25T00:48:38;6.30;99.90
5675;DHT22;2860;54.284;10.158;2023-04-25T00:51:03;6.30;99.90
5675;DHT22;2860;54.284;10.158;2023-04-25T00:53:30;6.30;99.90
5675;DHT22;2860;54.284;10.158;2023-04-25T00:55:57;6.30;99.90
5675;DHT22;2860;54.284;10.158;2023-04-25T00:58:23;6.20;99.90
5675;DHT22;2860;54.284;10.158;2023-04-25T01:00:51;6.20;99.90
5675;DHT22;2860;54.284;10.158;2023-04-25T01:03:17;6.20;99.90
5675;DHT22;2860;54.284;10.158;2023-04-25T01:05:45;6.20;99.90
5675;DHT22;2860;54.284;10.158;2023-04-25T01:08:11;6.20;99.90
5675;DHT22;2860;54.284;10.158;2023-04-25T01:10:36;6.20;99.90
5675;DHT22;2860;54.284;10.158;2023-04-25T01:13:02;6.20;99.90
5675;DHT22;2860;54.284;10.158;2023-04-25T01:15:28;6.20;99.90
5675;DHT22;2860;54.284;10.158;2023-04-25T01:17:54;6.20;99.90
5675;DHT22;2860;54.284;10.158;2023-04-25T01:20:21;6.20;99.90
5675;DHT22;2860;54.284;10.158;2023-04-25T01:22:48;6.20;99.90
5675;DHT22;2860;54.284;10.158;2023-04-25T01:25:14;6.20;99.90
5675;DHT22;2860;54.284;10.158;2023-04-25T01:27:40;6.20;99.90
5675;DHT22;2860;54.284;10.158;2023-04-25T01:30:06;6.20;99.90
5675;DHT22;2860;54.284;10.158;2023-04-25T01:32:33;6.10;99.90
5675;DHT22;2860;54.284;10.158;2023-04-25T01:35:08;6.10;99.90
5675;DHT22;2860;54.284;10.158;2023-04-25T01:37:38;6.10;99.90
5675;DHT22;2860;54.284;10.158;2023-04-25T01:40:04;6.00;99.90
5675;DHT22;2860;54.284;10.158;2023-04-25T01:42:34;6.00;99.90
5675;DHT22;2860;54.284;10.158;2023-04-25T01:45:00;6.10;99.90
5675;DHT22;2860;54.284;10.158;2023-04-25T01:47:25;6.00;99.90
5675;DHT22;2860;54.284;10.158;2023-04-25T01:49:51;6.00;99.90
5675;DHT22;2860;54.284;10.158;2023-04-25T01:52:16;6.00;99.90
5675;DHT22;2860;54.284;10.158;2023-04-25T01:54:43;5.90;99.90
5675;DHT22;2860;54.284;10.158;2023-04-25T01:57:12;5.90;99.90
5675;DHT22;2860;54.284;10.158;2023-04-25T01:59:38;5.80;99.90
5675;DHT22;2860;54.284;10.158;2023-04-25T02:02:04;5.70;99.90
5675;DHT22;2860;54.284;10.158;2023-04-25T02:04:30;5.60;99.90
5675;DHT22;2860;54.284;10.158;2023-04-25T02:06:56;5.60;99.90
5675;DHT22;2860;54.284;10.158;2023-04-25T02:09:21;5.50;99.90
5675;DHT22;2860;54.284;10.158;2023-04-25T02:11:47;5.60;99.90
5675;DHT22;2860;54.284;10.158;2023-04-25T02:14:13;5.60;99.90
5675;DHT22;2860;54.284;10.158;2023-04-25T02:16:38;5.50;99.90
5675;DHT22;2860;54.284;10.158;2023-04-25T02:19:04;5.50;99.90
5675;DHT22;2860;54.284;10.158;2023-04-25T02:21:30;5.50;99.90
5675;DHT22;2860;54.284;10.158;2023-04-25T02:23:56;5.40;99.90
5675;DHT22;2860;54.284;10.158;2023-04-25T02:26:22;5.40;99.90
5675;DHT22;2860;54.284;10.158;2023-04-25T02:28:49;5.30;99.90
5675;DHT22;2860;54.284;10.158;2023-04-25T02:31:15;5.20;99.90
5675;DHT22;2860;54.284;10.158;2023-04-25T02:33:40;5.20;99.90
5675;DHT22;2860;54.284;10.158;2023-04-25T02:36:06;5.10;99.90
5675;DHT22;2860;54.284;10.158;2023-04-25T02:38:32;5.00;99.90
5675;DHT22;2860;54.284;10.158;2023-04-25T02:40:57;5.10;99.90
5675;DHT22;2860;54.284;10.158;2023-04-25T02:43:23;5.10;99.90
5675;DHT22;2860;54.284;10.158;2023-04-25T02:45:48;5.10;99.90
5675;DHT22;2860;54.284;10.158;2023-04-25T02:48:14;5.10;99.90
5675;DHT22;2860;54.284;10.158;2023-04-25T02:50:39;5.10;99.90
5675;DHT22;2860;54.284;10.158;2023-04-25T02:53:05;5.20;99.90
5675;DHT22;2860;54.284;10.158;2023-04-25T02:55:30;5.10;99.90
5675;DHT22;2860;54.284;10.158;2023-04-25T02:57:56;5.20;99.90
5675;DHT22;2860;54.284;10.158;2023-04-25T03:00:22;5.10;99.90
5675;DHT22;2860;54.284;10.158;2023-04-25T03:02:48;5.10;99.90
5675;DHT22;2860;54.284;10.158;2023-04-25T03:05:13;5.10;99.90
5675;DHT22;2860;54.284;10.158;2023-04-25T03:07:39;5.10;99.90
5675;DHT22;2860;54.284;10.158;2023-04-25T03:10:06;5.10;99.90
5675;DHT22;2860;54.284;10.158;2023-04-25T03:12:32;5.00;99.90
5675;DHT22;2860;54.284;10.158;2023-04-25T03:14:57;5.00;99.90
5675;DHT22;2860;54.284;10.158;2023-04-25T03:17:23;5.00;99.90
5675;DHT22;2860;54.284;10.158;2023-04-25T03:19:48;4.90;99.90
5675;DHT22;2860;54.284;10.158;2023-04-25T03:22:14;4.90;99.90
5675;DHT22;2860;54.284;10.158;2023-04-25T03:24:39;5.00;99.90
5675;DHT22;2860;54.284;10.158;2023-04-25T03:27:05;5.00;99.90
5675;DHT22;2860;54.284;10.158;2023-04-25T03:29:31;5.00;99.90
5675;DHT22;2860;54.284;10.158;2023-04-25T03:31:56;5.00;99.90
5675;DHT22;2860;54.284;10.158;2023-04-25T03:34:22;4.90;99.90
5675;DHT22;2860;54.284;10.158;2023-04-25T03:36:47;5.00;99.90
5675;DHT22;2860;54.284;10.158;2023-04-25T03:39:13;5.00;99.90
5675;DHT22;2860;54.284;10.158;2023-04-25T03:41:38;5.00;99.90
5675;DHT22;2860;54.284;10.158;2023-04-25T03:44:04;5.00;99.90
5675;DHT22;2860;54.284;10.158;2023-04-25T03:46:29;5.00;99.90
5675;DHT22;2860;54.284;10.158;2023-04-25T03:48:55;5.10;99.90
5675;DHT22;2860;54.284;10.158;2023-04-25T03:51:20;5.10;99.90
5675;DHT22;2860;54.284;10.158;2023-04-25T03:53:46;5.10;99.90
5675;DHT22;2860;54.284;10.158;2023-04-25T03:56:11;5.10;99.90
5675;DHT22;2860;54.284;10.158;2023-04-25T03:58:37;5.10;99.90
5675;DHT22;2860;54.284;10.158;2023-04-25T04:01:02;5.10;99.90
5675;DHT22;2860;54.284;10.158;2023-04-25T04:03:35;5.10;99.90
5675;DHT22;2860;54.284;10.158;2023-04-25T04:06:02;5.10;99.90
5675;DHT22;2860;54.284;10.158;2023-04-25T04:08:29;5.10;99.90
5675;DHT22;2860;54.284;10.158;2023-04-25T04:10:55;5.10;99.90
5675;DHT22;2860;54.284;10.158;2023-04-25T04:13:21;5.10;99.90
5675;DHT22;2860;54.284;10.158;2023-04-25T04:15:46;5.10;99.90
5675;DHT22;2860;54.284;10.158;2023-04-25T04:18:12;5.00;99.90
5675;DHT22;2860;54.284;10.158;2023-04-25T04:20:37;5.00;99.90
5675;DHT22;2860;54.284;10.158;2023-04-25T04:23:03;5.10;99.90
5675;DHT22;2860;54.284;10.158;2023-04-25T04:25:28;5.10;99.90
5675;DHT22;2860;54.284;10.158;2023-04-25T04:27:55;5.10;99.90
5675;DHT22;2860;54.284;10.158;2023-04-25T04:30:24;5.10;99.90
5675;DHT22;2860;54.284;10.158;2023-04-25T04:32:51;5.10;99.90
5675;DHT22;2860;54.284;10.158;2023-04-25T04:35:16;5.10;99.90
5675;DHT22;2860;54.284;10.158;2023-04-25T04:37:42;5.10;99.90
5675;DHT22;2860;54.284;10.158;2023-04-25T04:40:09;5.20;99.90
5675;DHT22;2860;54.284;10.158;2023-04-25T04:42:35;5.20;99.90
5675;DHT22;2860;54.284;10.158;2023-04-25T04:45:01;5.20;99.90
5675;DHT22;2860;54.284;10.158;2023-04-25T04:47:28;5.20;99.90
5675;DHT22;2860;54.284;10.158;2023-04-25T04:49:56;5.20;99.90
5675;DHT22;2860;54.284;10.158;2023-04-25T04:52:22;5.20;99.90
5675;DHT22;2860;54.284;10.158;2023-04-25T04:54:47;5.20;99.90
5675;DHT22;2860;54.284;10.158;2023-04-25T04:57:13;5.30;99.90
5675;DHT22;2860;54.284;10.158;2023-04-25T04:59:39;5.30;99.90
5675;DHT22;2860;54.284;10.158;2023-04-25T05:02:04;5.30;99.90
5675;DHT22;2860;54.284;10.158;2023-04-25T05:04:30;5.30;99.90
5675;DHT22;2860;54.284;10.158;2023-04-25T05:06:55;5.40;99.90
5675;DHT22;2860;54.284;10.158;2023-04-25T05:09:21;5.40;99.90
5675;DHT22;2860;54.284;10.158;2023-04-25T05:11:51;5.40;99.90
5675;DHT22;2860;54.284;10.158;2023-04-25T05:14:16;5.40;99.90
5675;DHT22;2860;54.284;10.158;2023-04-25T05:16:43;5.40;99.90
5675;DHT22;2860;54.284;10.158;2023-04-25T05:19:08;5.40;99.90
5675;DHT22;2860;54.284;10.158;2023-04-25T05:21:34;5.40;99.90
5675;DHT22;2860;54.284;10.158;2023-04-25T05:24:00;5.50;99.90
5675;DHT22;2860;54.284;10.158;2023-04-25T05:26:25;5.40;99.90
5675;DHT22;2860;54.284;10.158;2023-04-25T05:28:51;5.40;99.90
5675;DHT22;2860;54.284;10.158;2023-04-25T05:31:16;5.40;99.90
5675;DHT22;2860;54.284;10.158;2023-04-25T05:33:42;5.50;99.90
5675;DHT22;2860;54.284;10.158;2023-04-25T05:36:07;5.50;99.90
5675;DHT22;2860;54.284;10.158;2023-04-25T05:38:33;5.50;99.90
5675;DHT22;2860;54.284;10.158;2023-04-25T05:40:59;5.50;99.90
5675;DHT22;2860;54.284;10.158;2023-04-25T05:43:24;5.50;99.90
5675;DHT22;2860;54.284;10.158;2023-04-25T05:45:50;5.50;99.90
5675;DHT22;2860;54.284;10.158;2023-04-25T05:48:15;5.60;99.90
5675;DHT22;2860;54.284;10.158;2023-04-25T05:50:41;5.60;99.90
5675;DHT22;2860;54.284;10.158;2023-04-25T05:53:06;5.60;99.90
5675;DHT22;2860;54.284;10.158;2023-04-25T05:55:32;5.70;99.90
5675;DHT22;2860;54.284;10.158;2023-04-25T05:57:57;5.80;99.90
5675;DHT22;2860;54.284;10.158;2023-04-25T06:00:23;5.90;99.90
5675;DHT22;2860;54.284;10.158;2023-04-25T06:02:49;6.00;99.90
5675;DHT22;2860;54.284;10.158;2023-04-25T06:05:14;6.00;99.90
5675;DHT22;2860;54.284;10.158;2023-04-25T06:07:40;6.00;99.90
5675;DHT22;2860;54.284;10.158;2023-04-25T06:10:06;6.00;99.90
5675;DHT22;2860;54.284;10.158;2023-04-25T06:12:32;6.00;99.90
5675;DHT22;2860;54.284;10.158;2023-04-25T06:14:59;6.10;99.90
5675;DHT22;2860;54.284;10.158;2023-04-25T06:17:24;6.10;99.90
5675;DHT22;2860;54.284;10.158;2023-04-25T06:19:50;6.10;99.90
5675;DHT22;2860;54.284;10.158;2023-04-25T06:22:15;6.10;99.90
5675;DHT22;2860;54.284;10.158;2023-04-25T06:24:41;6.20;99.90
5675;DHT22;2860;54.284;10.158;2023-04-25T06:27:06;6.30;99.90
5675;DHT22;2860;54.284;10.158;2023-04-25T06:29:32;6.30;99.90
5675;DHT22;2860;54.284;10.158;2023-04-25T06:31:57;6.40;99.90
5675;DHT22;2860;54.284;10.158;2023-04-25T06:34:23;6.50;99.90
5675;DHT22;2860;54.284;10.158;2023-04-25T06:36:49;6.50;99.90
5675;DHT22;2860;54.284;10.158;2023-04-25T06:39:15;6.60;99.90
5675;DHT22;2860;54.284;10.158;2023-04-25T06:41:40;6.80;99.90
5675;DHT22;2860;54.284;10.158;2023-04-25T06:44:06;6.90;99.90
5675;DHT22;2860;54.284;10.158;2023-04-25T06:46:31;6.90;99.90
5675;DHT22;2860;54.284;10.158;2023-04-25T06:48:57;7.00;99.90
5675;DHT22;2860;54.284;10.158;2023-04-25T06:51:22;7.10;99.90
5675;DHT22;2860;54.284;10.158;2023-04-25T06:53:49;7.20;99.90
5675;DHT22;2860;54.284;10.158;2023-04-25T06:56:15;7.10;99.90
5675;DHT22;2860;54.284;10.158;2023-04-25T06:58:41;7.00;99.90
5675;DHT22;2860;54.284;10.158;2023-04-25T07:01:06;6.90;99.90
5675;DHT22;2860;54.284;10.158;2023-04-25T07:03:32;6.90;99.90
5675;DHT22;2860;54.284;10.158;2023-04-25T07:05:57;6.80;99.90
5675;DHT22;2860;54.284;10.158;2023-04-25T07:08:23;6.70;99.90
5675;DHT22;2860;54.284;10.158;2023-04-25T07:10:48;6.80;99.90
5675;DHT22;2860;54.284;10.158;2023-04-25T07:13:14;6.80;99.90
5675;DHT22;2860;54.284;10.158;2023-04-25T07:15:39;6.80;99.90
5675;DHT22;2860;54.284;10.158;2023-04-25T07:18:05;6.90;99.90
5675;DHT22;2860;54.284;10.158;2023-04-25T07:20:30;6.90;99.90
5675;DHT22;2860;54.284;10.158;2023-04-25T07:22:57;6.90;99.90
5675;DHT22;2860;54.284;10.158;2023-04-25T07:25:22;6.90;99.90
5675;DHT22;2860;54.284;10.158;2023-04-25T07:27:48;7.00;99.90
5675;DHT22;2860;54.284;10.158;2023-04-25T07:30:13;7.00;99.90
5675;DHT22;2860;54.284;10.158;2023-04-25T07:32:39;7.00;99.90
5675;DHT22;2860;54.284;10.158;2023-04-25T07:35:05;6.90;99.90
5675;DHT22;2860;54.284;10.158;2023-04-25T07:37:32;6.90;99.90
5675;DHT22;2860;54.284;10.158;2023-04-25T07:39:58;6.90;99.90
5675;DHT22;2860;54.284;10.158;2023-04-25T07:42:23;6.90;99.90
5675;DHT22;2860;54.284;10.158;2023-04-25T07:44:49;6.90;99.90
5675;DHT22;2860;54.284;10.158;2023-04-25T07:47:16;6.90;99.90
5675;DHT22;2860;54.284;10.158;2023-04-25T07:49:44;7.10;99.90
5675;DHT22;2860;54.284;10.158;2023-04-25T07:52:10;7.20;99.90
5675;DHT22;2860;54.284;10.158;2023-04-25T07:54:36;7.30;99.90
5675;DHT22;2860;54.284;10.158;2023-04-25T07:57:01;7.40;99.90
5675;DHT22;2860;54.284;10.158;2023-04-25T07:59:27;7.60;99.90
5675;DHT22;2860;54.284;10.158;2023-04-25T08:01:53;7.80;99.90
5675;DHT22;2860;54.284;10.158;2023-04-25T08:04:18;8.00;99.90
5675;DHT22;2860;54.284;10.158;2023-04-25T08:06:44;8.20;99.90
5675;DHT22;2860;54.284;10.158;2023-04-25T08:09:11;8.50;99.90
5675;DHT22;2860;54.284;10.158;2023-04-25T08:11:36;8.70;99.90
5675;DHT22;2860;54.284;10.158;2023-04-25T08:14:02;8.80;99.90
5675;DHT22;2860;54.284;10.158;2023-04-25T08:16:28;8.70;99.90
5675;DHT22;2860;54.284;10.158;2023-04-25T08:18:53;8.70;99.90
5675;DHT22;2860;54.284;10.158;2023-04-25T08:21:19;8.50;99.90
5675;DHT22;2860;54.284;10.158;2023-04-25T08:23:45;8.30;99.90
5675;DHT22;2860;54.284;10.158;2023-04-25T08:26:11;8.20;99.90
5675;DHT22;2860;54.284;10.158;2023-04-25T08:28:36;8.20;99.90
5675;DHT22;2860;54.284;10.158;2023-04-25T08:31:02;8.00;99.90
5675;DHT22;2860;54.284;10.158;2023-04-25T08:33:27;8.00;99.90
5675;DHT22;2860;54.284;10.158;2023-04-25T08:35:53;8.00;99.90
5675;DHT22;2860;54.284;10.158;2023-04-25T08:38:18;8.00;99.90
5675;DHT22;2860;54.284;10.158;2023-04-25T08:40:49;8.10;99.90
5675;DHT22;2860;54.284;10.158;2023-04-25T08:43:18;8.30;99.90
5675;DHT22;2860;54.284;10.158;2023-04-25T08:45:44;8.40;99.90
5675;DHT22;2860;54.284;10.158;2023-04-25T08:48:14;8.60;99.90
5675;DHT22;2860;54.284;10.158;2023-04-25T08:50:53;8.70;99.90
5675;DHT22;2860;54.284;10.158;2023-04-25T08:53:25;8.80;99.90
5675;DHT22;2860;54.284;10.158;2023-04-25T08:55:53;8.90;99.90
5675;DHT22;2860;54.284;10.158;2023-04-25T08:58:20;8.90;99.90
5675;DHT22;2860;54.284;10.158;2023-04-25T09:00:47;8.80;99.90
5675;DHT22;2860;54.284;10.158;2023-04-25T09:03:13;8.70;99.90
5675;DHT22;2860;54.284;10.158;2023-04-25T09:05:40;8.60;99.90
5675;DHT22;2860;54.284;10.158;2023-04-25T09:08:06;8.40;99.90
5675;DHT22;2860;54.284;10.158;2023-04-25T09:10:32;8.60;99.90
5675;DHT22;2860;54.284;10.158;2023-04-25T09:13:14;8.70;99.90
5675;DHT22;2860;54.284;10.158;2023-04-25T09:15:53;8.80;99.90
5675;DHT22;2860;54.284;10.158;2023-04-25T09:18:26;8.90;99.90
5675;DHT22;2860;54.284;10.158;2023-04-25T09:20:54;8.90;99.90
5675;DHT22;2860;54.284;10.158;2023-04-25T09:23:20;9.00;99.90
5675;DHT22;2860;54.284;10.158;2023-04-25T09:25:51;9.10;99.90
5675;DHT22;2860;54.284;10.158;2023-04-25T09:28:23;9.20;99.90
5675;DHT22;2860;54.284;10.158;2023-04-25T09:30:55;9.10;99.90
5675;DHT22;2860;54.284;10.158;2023-04-25T09:33:29;9.30;99.90
5675;DHT22;2860;54.284;10.158;2023-04-25T09:36:02;9.30;99.90
5675;DHT22;2860;54.284;10.158;2023-04-25T09:38:39;9.60;99.90
5675;DHT22;2860;54.284;10.158;2023-04-25T09:41:06;9.70;99.90
5675;DHT22;2860;54.284;10.158;2023-04-25T09:43:32;9.90;99.90
5675;DHT22;2860;54.284;10.158;2023-04-25T09:45:58;10.00;99.90
5675;DHT22;2860;54.284;10.158;2023-04-25T09:48:25;9.90;99.90
5675;DHT22;2860;54.284;10.158;2023-04-25T09:51:06;10.00;99.90
5675;DHT22;2860;54.284;10.158;2023-04-25T09:53:40;10.00;99.90
5675;DHT22;2860;54.284;10.158;2023-04-25T09:56:07;10.10;99.90
5675;DHT22;2860;54.284;10.158;2023-04-25T09:58:34;10.00;99.90
5675;DHT22;2860;54.284;10.158;2023-04-25T10:01:03;10.10;99.90
5675;DHT22;2860;54.284;10.158;2023-04-25T10:03:34;10.10;99.90
5675;DHT22;2860;54.284;10.158;2023-04-25T10:06:01;10.10;99.90
5675;DHT22;2860;54.284;10.158;2023-04-25T10:08:35;10.30;99.90
5675;DHT22;2860;54.284;10.158;2023-04-25T10:11:06;10.20;99.90
5675;DHT22;2860;54.284;10.158;2023-04-25T10:13:33;9.90;99.90
5675;DHT22;2860;54.284;10.158;2023-04-25T10:16:01;9.60;99.90
5675;DHT22;2860;54.284;10.158;2023-04-25T10:18:28;9.30;99.90
5675;DHT22;2860;54.284;10.158;2023-04-25T10:20:55;9.00;99.90
5675;DHT22;2860;54.284;10.158;2023-04-25T10:23:21;8.70;99.90
5675;DHT22;2860;54.284;10.158;2023-04-25T10:25:47;8.50;99.90
5675;DHT22;2860;54.284;10.158;2023-04-25T10:28:13;8.40;99.90
5675;DHT22;2860;54.284;10.158;2023-04-25T10:31:02;8.70;99.90
5675;DHT22;2860;54.284;10.158;2023-04-25T10:33:39;9.30;99.90
5675;DHT22;2860;54.284;10.158;2023-04-25T10:36:13;9.40;99.90
5675;DHT22;2860;54.284;10.158;2023-04-25T10:38:39;9.10;99.90
5675;DHT22;2860;54.284;10.158;2023-04-25T10:41:07;8.90;99.90
5675;DHT22;2860;54.284;10.158;2023-04-25T10:43:45;9.10;99.90
5675;DHT22;2860;54.284;10.158;2023-04-25T10:46:16;8.90;99.90
5675;DHT22;2860;54.284;10.158;2023-04-25T10:48:46;8.90;99.90
5675;DHT22;2860;54.284;10.158;2023-04-25T10:51:27;9.00;99.90
5675;DHT22;2860;54.284;10.158;2023-04-25T10:56:22;9.10;99.90
5675;DHT22;2860;54.284;10.158;2023-04-25T10:58:49;9.20;99.90
5675;DHT22;2860;54.284;10.158;2023-04-25T11:01:19;9.20;99.90
5675;DHT22;2860;54.284;10.158;2023-04-25T11:03:45;9.20;99.90
5675;DHT22;2860;54.284;10.158;2023-04-25T11:06:45;9.40;99.90
5675;DHT22;2860;54.284;10.158;2023-04-25T11:09:12;9.50;99.90
5675;DHT22;2860;54.284;10.158;2023-04-25T11:11:38;9.70;99.90
5675;DHT22;2860;54.284;10.158;2023-04-25T11:14:04;10.20;99.90
5675;DHT22;2860;54.284;10.158;2023-04-25T11:16:29;10.30;99.90
5675;DHT22;2860;54.284;10.158;2023-04-25T11:18:57;10.20;99.90
5675;DHT22;2860;54.284;10.158;2023-04-25T11:21:23;10.00;99.90
5675;DHT22;2860;54.284;10.158;2023-04-25T11:23:49;9.50;99.90
5675;DHT22;2860;54.284;10.158;2023-04-25T11:26:15;8.90;99.90
5675;DHT22;2860;54.284;10.158;2023-04-25T11:28:40;8.50;99.90
5675;DHT22;2860;54.284;10.158;2023-04-25T11:31:09;8.20;99.90
5675;DHT22;2860;54.284;10.158;2023-04-25T11:33:35;8.20;99.90
5675;DHT22;2860;54.284;10.158;2023-04-25T11:36:01;8.40;99.90
5675;DHT22;2860;54.284;10.158;2023-04-25T11:38:27;8.70;99.90
5675;DHT22;2860;54.284;10.158;2023-04-25T11:40:53;8.80;99.90
5675;DHT22;2860;54.284;10.158;2023-04-25T11:43:21;9.00;99.90
5675;DHT22;2860;54.284;10.158;2023-04-25T11:45:48;9.30;99.90
5675;DHT22;2860;54.284;10.158;2023-04-25T11:48:14;9.30;99.90
5675;DHT22;2860;54.284;10.158;2023-04-25T11:50:40;9.40;99.90
5675;DHT22;2860;54.284;10.158;2023-04-25T11:53:05;9.50;99.90
5675;DHT22;2860;54.284;10.158;2023-04-25T11:55:31;9.50;99.90
5675;DHT22;2860;54.284;10.158;2023-04-25T11:58:00;9.40;99.90
5675;DHT22;2860;54.284;10.158;2023-04-25T12:00:26;9.50;99.90
5675;DHT22;2860;54.284;10.158;2023-04-25T12:02:53;9.70;99.90
5675;DHT22;2860;54.284;10.158;2023-04-25T12:05:19;9.70;99.90
5675;DHT22;2860;54.284;10.158;2023-04-25T12:07:46;9.70;99.90
5675;DHT22;2860;54.284;10.158;2023-04-25T12:10:13;9.60;99.90
5675;DHT22;2860;54.284;10.158;2023-04-25T12:12:42;9.20;99.90
5675;DHT22;2860;54.284;10.158;2023-04-25T12:17:38;7.80;99.90
5675;DHT22;2860;54.284;10.158;2023-04-25T12:20:14;7.60;99.90
5675;DHT22;2860;54.284;10.158;2023-04-25T12:22:44;7.70;99.90
5675;DHT22;2860;54.284;10.158;2023-04-25T12:25:59;7.70;99.90
5675;DHT22;2860;54.284;10.158;2023-04-25T12:28:20;7.70;99.90
5675;DHT22;2860;54.284;10.158;2023-04-25T12:31:07;7.80;99.90
5675;DHT22;2860;54.284;10.158;2023-04-25T12:33:35;7.90;99.90
5675;DHT22;2860;54.284;10.158;2023-04-25T12:36:03;7.90;99.90
5675;DHT22;2860;54.284;10.158;2023-04-25T12:38:40;7.90;99.90
5675;DHT22;2860;54.284;10.158;2023-04-25T12:41:07;7.90;99.90
5675;DHT22;2860;54.284;10.158;2023-04-25T12:43:33;8.10;99.90
5675;DHT22;2860;54.284;10.158;2023-04-25T12:45:59;8.20;99.90
5675;DHT22;2860;54.284;10.158;2023-04-25T12:48:25;8.50;99.90
5675;DHT22;2860;54.284;10.158;2023-04-25T12:50:51;8.90;99.90
5675;DHT22;2860;54.284;10.158;2023-04-25T12:53:18;9.40;99.90
5675;DHT22;2860;54.284;10.158;2023-04-25T12:55:45;9.60;99.90
5675;DHT22;2860;54.284;10.158;2023-04-25T12:58:18;9.60;99.90
5675;DHT22;2860;54.284;10.158;2023-04-25T13:00:44;9.50;99.90
5675;DHT22;2860;54.284;10.158;2023-04-25T13:03:10;9.30;99.90
5675;DHT22;2860;54.284;10.158;2023-04-25T13:05:39;8.90;99.90
5675;DHT22;2860;54.284;10.158;2023-04-25T13:08:05;8.90;99.90
5675;DHT22;2860;54.284;10.158;2023-04-25T13:10:30;8.70;99.90
5675;DHT22;2860;54.284;10.158;2023-04-25T13:12:56;8.60;99.90
5675;DHT22;2860;54.284;10.158;2023-04-25T13:15:22;8.60;99.90
5675;DHT22;2860;54.284;10.158;2023-04-25T13:17:48;8.70;99.90
5675;DHT22;2860;54.284;10.158;2023-04-25T13:20:13;9.00;99.90
5675;DHT22;2860;54.284;10.158;2023-04-25T13:22:40;9.10;99.90
5675;DHT22;2860;54.284;10.158;2023-04-25T13:25:07;9.20;99.90
5675;DHT22;2860;54.284;10.158;2023-04-25T13:27:33;9.10;99.90
5675;DHT22;2860;54.284;10.158;2023-04-25T13:30:03;9.10;99.90
5675;DHT22;2860;54.284;10.158;2023-04-25T13:32:33;9.20;99.90
5675;DHT22;2860;54.284;10.158;2023-04-25T13:34:59;9.40;99.90
5675;DHT22;2860;54.284;10.158;2023-04-25T13:37:26;9.70;99.90
5675;DHT22;2860;54.284;10.158;2023-04-25T13:39:51;10.00;99.90
5675;DHT22;2860;54.284;10.158;2023-04-25T13:42:17;10.00;99.90
5675;DHT22;2860;54.284;10.158;2023-04-25T13:44:42;10.00;99.90
5675;DHT22;2860;54.284;10.158;2023-04-25T13:47:08;10.00;99.90
5675;DHT22;2860;54.284;10.158;2023-04-25T13:49:33;9.80;99.90
5675;DHT22;2860;54.284;10.158;2023-04-25T13:51:59;9.80;99.90
5675;DHT22;2860;54.284;10.158;2023-04-25T13:54:24;9.70;99.90
5675;DHT22;2860;54.284;10.158;2023-04-25T13:56:50;9.60;99.90
5675;DHT22;2860;54.284;10.158;2023-04-25T13:59:15;9.60;99.90
5675;DHT22;2860;54.284;10.158;2023-04-25T14:01:41;9.60;99.90
5675;DHT22;2860;54.284;10.158;2023-04-25T14:04:06;9.60;99.90
5675;DHT22;2860;54.284;10.158;2023-04-25T14:06:32;9.80;99.90
5675;DHT22;2860;54.284;10.158;2023-04-25T14:08:58;10.00;99.90
5675;DHT22;2860;54.284;10.158;2023-04-25T14:11:26;9.90;99.90
5675;DHT22;2860;54.284;10.158;2023-04-25T14:13:51;9.60;99.90
5675;DHT22;2860;54.284;10.158;2023-04-25T14:16:17;9.40;99.90
5675;DHT22;2860;54.284;10.158;2023-04-25T14:18:42;9.00;99.90
5675;DHT22;2860;54.284;10.158;2023-04-25T14:21:09;8.80;99.90
5675;DHT22;2860;54.284;10.158;2023-04-25T14:23:35;8.70;99.90
5675;DHT22;2860;54.284;10.158;2023-04-25T14:26:00;8.60;99.90
5675;DHT22;2860;54.284;10.158;2023-04-25T14:28:26;8.30;99.90
5675;DHT22;2860;54.284;10.158;2023-04-25T14:30:51;8.00;99.90
5675;DHT22;2860;54.284;10.158;2023-04-25T14:33:17;7.70;99.90
5675;DHT22;2860;54.284;10.158;2023-04-25T14:35:42;7.30;99.90
5675;DHT22;2860;54.284;10.158;2023-04-25T14:38:08;7.10;99.90
5675;DHT22;2860;54.284;10.158;2023-04-25T14:40:33;6.80;99.90
5675;DHT22;2860;54.284;10.158;2023-04-25T14:42:58;6.70;99.90
5675;DHT22;2860;54.284;10.158;2023-04-25T14:45:24;6.80;99.90
5675;DHT22;2860;54.284;10.158;2023-04-25T14:47:50;6.90;99.90
5675;DHT22;2860;54.284;10.158;2023-04-25T14:50:15;6.90;99.90
5675;DHT22;2860;54.284;10.158;2023-04-25T14:52:41;7.00;99.90
5675;DHT22;2860;54.284;10.158;2023-04-25T14:55:07;7.10;99.90
5675;DHT22;2860;54.284;10.158;2023-04-25T14:57:33;7.40;99.90
5675;DHT22;2860;54.284;10.158;2023-04-25T14:59:58;7.60;99.90
5675;DHT22;2860;54.284;10.158;2023-04-25T15:02:24;7.80;99.90
5675;DHT22;2860;54.284;10.158;2023-04-25T15:04:50;8.20;99.90
5675;DHT22;2860;54.284;10.158;2023-04-25T15:07:15;8.40;99.90
5675;DHT22;2860;54.284;10.158;2023-04-25T15:09:41;8.70;99.90
5675;DHT22;2860;54.284;10.158;2023-04-25T15:12:07;8.80;99.90
5675;DHT22;2860;54.284;10.158;2023-04-25T15:14:33;9.10;99.90
5675;DHT22;2860;54.284;10.158;2023-04-25T15:16:59;9.10;99.90
5675;DHT22;2860;54.284;10.158;2023-04-25T15:19:25;8.90;99.90
5675;DHT22;2860;54.284;10.158;2023-04-25T15:21:51;9.00;99.90
5675;DHT22;2860;54.284;10.158;2023-04-25T15:24:16;9.10;99.90
5675;DHT22;2860;54.284;10.158;2023-04-25T15:26:42;9.00;99.90
5675;DHT22;2860;54.284;10.158;2023-04-25T15:29:07;8.80;99.90
5675;DHT22;2860;54.284;10.158;2023-04-25T15:31:33;8.70;99.90
5675;DHT22;2860;54.284;10.158;2023-04-25T15:33:58;8.60;99.90
5675;DHT22;2860;54.284;10.158;2023-04-25T15:36:24;8.50;99.90
5675;DHT22;2860;54.284;10.158;2023-04-25T15:38:50;8.50;99.90
5675;DHT22;2860;54.284;10.158;2023-04-25T15:41:17;8.50;99.90
5675;DHT22;2860;54.284;10.158;2023-04-25T15:43:42;8.60;99.90
5675;DHT22;2860;54.284;10.158;2023-04-25T15:46:08;8.70;99.90
5675;DHT22;2860;54.284;10.158;2023-04-25T15:48:33;8.90;99.90
5675;DHT22;2860;54.284;10.158;2023-04-25T15:50:59;9.10;99.90
5675;DHT22;2860;54.284;10.158;2023-04-25T15:53:25;9.30;99.90
5675;DHT22;2860;54.284;10.158;2023-04-25T15:55:50;9.50;99.90
5675;DHT22;2860;54.284;10.158;2023-04-25T15:58:16;9.30;99.90
5675;DHT22;2860;54.284;10.158;2023-04-25T16:00:42;9.20;99.90
5675;DHT22;2860;54.284;10.158;2023-04-25T16:03:07;8.90;99.90